createdAt,value
2019-03-12T00:00:06.569Z,0.00
2019-03-12T00:01:06.584Z,0.00
2019-03-12T00:02:06.602Z,0.00
2019-03-12T00:03:06.640Z,0.00
2019-03-12T00:04:06.709Z,0.00
2019-03-12T00:05:06.656Z,0.00
2019-03-12T00:06:06.670Z,0.00
2019-03-12T00:07:06.690Z,0.00
2019-03-12T00:08:06.716Z,0.00
2019-03-12T00:09:06.737Z,0.00
2019-03-12T00:10:06.762Z,0.00
2019-03-12T00:11:06.774Z,0.00
2019-03-12T00:12:06.793Z,0.00
2019-03-12T00:13:06.813Z,0.00
2019-03-12T00:14:06.825Z,0.00
2019-03-12T00:15:06.847Z,0.00
2019-03-12T00:16:06.869Z,0.00
2019-03-12T00:17:06.886Z,0.00
2019-03-12T00:18:06.906Z,0.00
2019-03-12T00:19:06.944Z,0.00
2019-03-12T00:20:06.941Z,0.00
2019-03-12T00:21:06.966Z,0.00
2019-03-12T00:22:06.971Z,0.00
2019-03-12T00:23:06.997Z,0.00
2019-03-12T00:24:07.015Z,0.00
2019-03-12T00:25:07.039Z,0.00
2019-03-12T00:26:07.053Z,0.00
2019-03-12T00:27:07.072Z,0.00
2019-03-12T00:28:07.096Z,0.00
2019-03-12T00:29:07.108Z,0.00
2019-03-12T00:30:07.133Z,0.00
2019-03-12T00:31:07.150Z,0.00
2019-03-12T00:32:07.207Z,0.00
2019-03-12T00:33:07.180Z,0.00
2019-03-12T00:34:07.207Z,0.00
2019-03-12T00:35:07.226Z,0.00
2019-03-12T00:36:07.243Z,0.00
2019-03-12T00:37:07.267Z,0.00
2019-03-12T00:38:07.289Z,0.00
2019-03-12T00:39:07.401Z,0.00
2019-03-12T00:40:07.314Z,0.00
2019-03-12T00:41:07.338Z,0.00
2019-03-12T00:42:07.355Z,0.00
2019-03-12T00:43:07.373Z,0.00
2019-03-12T00:44:07.387Z,0.00
2019-03-12T00:45:07.414Z,0.00
2019-03-12T00:46:07.428Z,0.00
2019-03-12T00:47:07.448Z,0.00
2019-03-12T00:48:07.473Z,0.00
2019-03-12T00:49:07.490Z,0.00
2019-03-12T00:50:07.499Z,0.00
2019-03-12T00:51:07.540Z,0.00
2019-03-12T00:52:07.543Z,0.00
2019-03-12T00:53:07.564Z,0.00
2019-03-12T00:54:07.589Z,0.00
2019-03-12T00:55:07.604Z,0.00
2019-03-12T00:56:07.617Z,0.00
2019-03-12T00:57:07.638Z,0.00
2019-03-12T00:58:07.664Z,0.00
2019-03-12T00:59:07.679Z,0.00
2019-03-12T01:00:07.708Z,0.00
2019-03-12T01:01:07.715Z,0.00
2019-03-12T01:02:07.733Z,0.00
2019-03-12T01:03:07.756Z,0.00
2019-03-12T01:04:07.793Z,0.00
2019-03-12T01:05:07.797Z,0.00
2019-03-12T01:06:07.804Z,0.00
2019-03-12T01:07:07.825Z,0.00
2019-03-12T01:08:07.841Z,0.00
2019-03-12T01:09:07.865Z,0.00
2019-03-12T01:10:07.888Z,0.00
2019-03-12T01:11:07.899Z,0.00
2019-03-12T01:12:07.917Z,0.00
2019-03-12T01:13:07.932Z,0.00
2019-03-12T01:14:07.954Z,0.00
2019-03-12T01:15:07.991Z,0.00
2019-03-12T01:16:08.001Z,0.00
2019-03-12T01:17:08.006Z,0.00
2019-03-12T01:18:08.029Z,0.00
2019-03-12T01:19:08.047Z,0.00
2019-03-12T01:20:08.064Z,0.00
2019-03-12T01:21:08.079Z,0.00
2019-03-12T01:22:08.099Z,0.00
2019-03-12T01:23:08.123Z,0.00
2019-03-12T01:24:08.139Z,0.00
2019-03-12T01:25:08.158Z,0.00
2019-03-12T01:26:08.229Z,0.00
2019-03-12T01:27:08.200Z,0.00
2019-03-12T01:28:08.222Z,0.00
2019-03-12T01:29:08.229Z,0.00
2019-03-12T01:30:08.252Z,0.00
2019-03-12T01:31:08.273Z,0.00
2019-03-12T01:32:08.285Z,0.00
2019-03-12T01:33:08.304Z,0.00
2019-03-12T01:34:08.334Z,0.00
2019-03-12T01:35:08.341Z,0.00
2019-03-12T01:36:08.365Z,0.00
2019-03-12T01:37:08.380Z,0.00
2019-03-12T01:38:08.526Z,0.00
2019-03-12T01:39:08.426Z,0.00
2019-03-12T01:40:08.433Z,0.00
2019-03-12T01:41:08.453Z,0.00
2019-03-12T01:42:08.471Z,0.00
2019-03-12T01:43:08.491Z,0.00
2019-03-12T01:44:08.509Z,0.00
2019-03-12T01:45:08.532Z,0.00
2019-03-12T01:46:08.552Z,0.00
2019-03-12T01:47:08.566Z,0.00
2019-03-12T01:48:08.599Z,0.00
2019-03-12T01:49:08.597Z,0.00
2019-03-12T01:50:08.622Z,0.00
2019-03-12T01:51:08.641Z,0.00
2019-03-12T01:52:08.663Z,0.00
2019-03-12T01:53:08.675Z,0.00
2019-03-12T01:54:08.696Z,0.00
2019-03-12T01:55:08.715Z,0.00
2019-03-12T01:56:08.736Z,0.00
2019-03-12T01:57:08.748Z,0.00
2019-03-12T01:58:08.776Z,0.00
2019-03-12T01:59:08.783Z,0.00
2019-03-12T02:00:08.804Z,0.00
2019-03-12T02:01:08.828Z,0.00
2019-03-12T02:02:08.840Z,0.00
2019-03-12T02:03:08.884Z,0.00
2019-03-12T02:04:08.878Z,0.00
2019-03-12T02:05:08.904Z,0.00
2019-03-12T02:06:08.919Z,0.00
2019-03-12T02:07:08.943Z,0.00
2019-03-12T02:08:08.949Z,0.00
2019-03-12T02:09:08.979Z,0.00
2019-03-12T02:10:08.990Z,0.00
2019-03-12T02:11:09.011Z,0.00
2019-03-12T02:12:09.028Z,0.00
2019-03-12T02:13:09.050Z,0.00
2019-03-12T02:14:09.067Z,0.00
2019-03-12T02:15:09.083Z,0.00
2019-03-12T02:16:09.102Z,0.00
2019-03-12T02:17:09.122Z,0.00
2019-03-12T02:18:09.145Z,0.00
2019-03-12T02:19:09.157Z,0.00
2019-03-12T02:20:09.177Z,0.00
2019-03-12T02:21:09.197Z,0.00
2019-03-12T02:22:09.248Z,0.00
2019-03-12T02:23:09.236Z,0.00
2019-03-12T02:24:09.257Z,0.00
2019-03-12T02:25:09.277Z,0.00
2019-03-12T02:26:09.305Z,0.00
2019-03-12T02:27:09.314Z,0.00
2019-03-12T02:28:09.331Z,0.00
2019-03-12T02:29:09.355Z,0.00
2019-03-12T02:30:09.361Z,0.00
2019-03-12T02:31:09.386Z,0.00
2019-03-12T02:32:09.410Z,0.00
2019-03-12T02:33:09.423Z,0.00
2019-03-12T02:34:09.439Z,0.00
2019-03-12T02:35:09.458Z,0.00
2019-03-12T02:36:09.532Z,0.00
2019-03-12T02:37:09.492Z,0.00
2019-03-12T02:38:09.621Z,0.00
2019-03-12T02:39:09.537Z,0.00
2019-03-12T02:40:09.551Z,0.00
2019-03-12T02:41:09.573Z,0.00
2019-03-12T02:42:12.653Z,0.00
2019-03-12T02:43:09.622Z,0.00
2019-03-12T02:44:09.655Z,0.00
2019-03-12T02:45:09.644Z,0.00
2019-03-12T02:46:09.668Z,0.00
2019-03-12T02:47:09.681Z,0.00
2019-03-12T02:48:09.711Z,0.00
2019-03-12T02:49:10.396Z,0.00
2019-03-12T02:50:09.734Z,0.00
2019-03-12T02:51:09.765Z,0.00
2019-03-12T02:52:09.789Z,0.00
2019-03-12T02:53:09.787Z,0.00
2019-03-12T02:54:09.816Z,0.00
2019-03-12T02:55:09.832Z,0.00
2019-03-12T02:56:09.845Z,0.00
2019-03-12T02:57:09.863Z,0.00
2019-03-12T02:58:09.886Z,0.00
2019-03-12T02:59:09.900Z,0.00
2019-03-12T03:00:09.921Z,0.00
2019-03-12T03:01:09.941Z,0.00
2019-03-12T03:02:09.957Z,0.00
2019-03-12T03:03:09.974Z,0.00
2019-03-12T03:04:09.998Z,0.00
2019-03-12T03:05:10.015Z,0.00
2019-03-12T03:06:10.030Z,0.00
2019-03-12T03:07:10.056Z,0.00
2019-03-12T03:08:10.073Z,0.00
2019-03-12T03:09:10.090Z,0.00
2019-03-12T03:10:10.108Z,0.00
2019-03-12T03:11:10.121Z,0.00
2019-03-12T03:12:10.145Z,0.00
2019-03-12T03:13:10.159Z,0.00
2019-03-12T03:14:10.183Z,0.00
2019-03-12T03:15:10.201Z,0.00
2019-03-12T03:16:10.222Z,0.00
2019-03-12T03:17:10.231Z,0.00
2019-03-12T03:18:10.252Z,0.00
2019-03-12T03:19:10.271Z,0.00
2019-03-12T03:20:10.311Z,0.00
2019-03-12T03:21:10.317Z,0.00
2019-03-12T03:22:10.329Z,0.00
2019-03-12T03:23:10.343Z,0.00
2019-03-12T03:24:10.369Z,0.00
2019-03-12T03:25:10.389Z,0.00
2019-03-12T03:26:10.403Z,0.00
2019-03-12T03:27:10.423Z,0.00
2019-03-12T03:28:10.452Z,0.00
2019-03-12T03:29:10.469Z,0.00
2019-03-12T03:30:10.481Z,0.00
2019-03-12T03:31:10.495Z,0.00
2019-03-12T03:32:10.516Z,0.00
2019-03-12T03:33:10.559Z,0.00
2019-03-12T03:34:10.559Z,0.00
2019-03-12T03:35:10.566Z,0.00
2019-03-12T03:36:10.588Z,0.00
2019-03-12T03:37:10.620Z,0.00
2019-03-12T03:38:10.630Z,0.00
2019-03-12T03:39:10.643Z,0.00
2019-03-12T03:40:10.667Z,0.00
2019-03-12T03:41:10.677Z,0.00
2019-03-12T03:42:10.698Z,0.00
2019-03-12T03:43:10.729Z,0.00
2019-03-12T03:44:10.731Z,0.00
2019-03-12T03:45:10.765Z,0.00
2019-03-12T03:46:10.772Z,0.00
2019-03-12T03:47:10.797Z,0.00
2019-03-12T03:48:10.809Z,0.00
2019-03-12T03:49:10.823Z,0.00
2019-03-12T03:50:10.849Z,0.00
2019-03-12T03:51:10.868Z,0.00
2019-03-12T03:52:10.890Z,0.00
2019-03-12T03:53:10.897Z,0.00
2019-03-12T03:54:10.944Z,0.00
2019-03-12T03:55:10.944Z,0.00
2019-03-12T03:56:10.959Z,0.00
2019-03-12T03:57:10.978Z,0.00
2019-03-12T03:58:10.993Z,0.00
2019-03-12T03:59:11.035Z,0.00
2019-03-12T04:00:11.055Z,0.00
2019-03-12T04:01:11.053Z,0.00
2019-03-12T04:02:11.066Z,0.00
2019-03-12T04:03:11.083Z,0.00
2019-03-12T04:04:11.105Z,0.00
2019-03-12T04:05:11.142Z,0.00
2019-03-12T04:06:11.143Z,0.00
2019-03-12T04:07:11.186Z,0.00
2019-03-12T04:08:11.183Z,0.00
2019-03-12T04:09:11.202Z,0.00
2019-03-12T04:10:11.231Z,0.00
2019-03-12T04:11:11.239Z,0.00
2019-03-12T04:12:11.288Z,0.00
2019-03-12T04:13:11.271Z,0.00
2019-03-12T04:14:11.294Z,0.00
2019-03-12T04:15:11.314Z,0.00
2019-03-12T04:16:11.332Z,0.00
2019-03-12T04:17:11.348Z,0.00
2019-03-12T04:18:11.362Z,0.00
2019-03-12T04:19:11.387Z,0.00
2019-03-12T04:20:11.469Z,0.00
2019-03-12T04:21:11.423Z,0.00
2019-03-12T04:22:11.461Z,0.00
2019-03-12T04:23:11.519Z,0.00
2019-03-12T04:24:11.479Z,0.00
2019-03-12T04:25:11.496Z,0.00
2019-03-12T04:26:11.512Z,0.00
2019-03-12T04:27:11.531Z,0.00
2019-03-12T04:28:11.551Z,0.00
2019-03-12T04:29:11.567Z,0.00
2019-03-12T04:30:11.586Z,0.00
2019-03-12T04:31:11.610Z,0.00
2019-03-12T04:32:11.624Z,0.00
2019-03-12T04:33:11.646Z,0.00
2019-03-12T04:34:11.693Z,0.00
2019-03-12T04:35:11.720Z,0.00
2019-03-12T04:36:11.698Z,0.00
2019-03-12T04:37:11.720Z,0.00
2019-03-12T04:38:11.970Z,0.00
2019-03-12T04:39:11.754Z,0.00
2019-03-12T04:40:11.782Z,0.00
2019-03-12T04:41:11.797Z,0.00
2019-03-12T04:42:11.812Z,0.00
2019-03-12T04:43:11.834Z,0.00
2019-03-12T04:44:11.872Z,0.00
2019-03-12T04:45:11.864Z,0.00
2019-03-12T04:46:11.887Z,0.00
2019-03-12T04:47:11.900Z,0.00
2019-03-12T04:48:11.926Z,0.00
2019-03-12T04:49:11.943Z,0.00
2019-03-12T04:50:11.962Z,0.00
2019-03-12T04:51:11.978Z,0.00
2019-03-12T04:52:12.001Z,0.00
2019-03-12T04:53:12.012Z,0.00
2019-03-12T04:54:12.035Z,0.00
2019-03-12T04:55:12.059Z,0.00
2019-03-12T04:56:12.073Z,0.00
2019-03-12T04:57:12.093Z,0.00
2019-03-12T04:58:12.112Z,0.00
2019-03-12T04:59:12.132Z,0.00
2019-03-12T05:00:12.143Z,0.00
2019-03-12T05:01:12.166Z,0.00
2019-03-12T05:02:12.186Z,0.00
2019-03-12T05:03:12.205Z,0.00
2019-03-12T05:04:12.223Z,0.00
2019-03-12T05:05:12.241Z,0.00
2019-03-12T05:06:12.256Z,0.00
2019-03-12T05:07:12.278Z,0.00
2019-03-12T05:08:12.293Z,0.00
2019-03-12T05:09:12.318Z,0.00
2019-03-12T05:10:12.330Z,0.00
2019-03-12T05:11:12.355Z,0.00
2019-03-12T05:12:12.375Z,0.00
2019-03-12T05:13:12.392Z,0.00
2019-03-12T05:14:12.406Z,0.00
2019-03-12T05:15:12.424Z,0.00
2019-03-12T05:16:12.444Z,0.00
2019-03-12T05:17:12.468Z,0.00
2019-03-12T05:18:12.478Z,0.00
2019-03-12T05:19:12.504Z,0.00
2019-03-12T05:20:12.518Z,0.00
2019-03-12T05:21:12.537Z,0.00
2019-03-12T05:22:12.563Z,0.00
2019-03-12T05:23:12.577Z,0.00
2019-03-12T05:24:12.641Z,0.00
2019-03-12T05:25:12.611Z,0.00
2019-03-12T05:26:12.645Z,0.00
2019-03-12T05:27:12.647Z,0.00
2019-03-12T05:28:12.669Z,0.00
2019-03-12T05:29:12.685Z,0.00
2019-03-12T05:30:12.727Z,0.00
2019-03-12T05:31:12.724Z,0.00
2019-03-12T05:32:12.740Z,0.00
2019-03-12T05:33:12.766Z,0.00
2019-03-12T05:34:12.778Z,0.00
2019-03-12T05:35:12.795Z,0.00
2019-03-12T05:36:12.814Z,0.00
2019-03-12T05:37:12.877Z,0.00
2019-03-12T05:38:12.855Z,0.00
2019-03-12T05:39:12.881Z,5.63
2019-03-12T05:40:12.888Z,5.63
2019-03-12T05:41:12.909Z,0.00
2019-03-12T05:42:12.925Z,0.00
2019-03-12T05:43:12.945Z,5.63
2019-03-12T05:44:12.959Z,5.63
2019-03-12T05:45:12.989Z,5.63
2019-03-12T05:46:13.001Z,5.63
2019-03-12T05:47:13.019Z,5.63
2019-03-12T05:48:13.038Z,5.63
2019-03-12T05:49:13.057Z,5.63
2019-03-12T05:50:13.081Z,11.25
2019-03-12T05:51:13.111Z,11.25
2019-03-12T05:52:13.111Z,11.25
2019-03-12T05:53:13.134Z,11.25
2019-03-12T05:54:13.149Z,11.25
2019-03-12T05:55:13.177Z,11.25
2019-03-12T05:56:13.185Z,11.25
2019-03-12T05:57:13.212Z,11.25
2019-03-12T05:58:13.225Z,11.25
2019-03-12T05:59:13.242Z,11.25
2019-03-12T06:00:13.259Z,11.25
2019-03-12T06:01:13.284Z,11.25
2019-03-12T06:02:13.294Z,11.25
2019-03-12T06:03:13.328Z,11.25
2019-03-12T06:04:13.335Z,11.25
2019-03-12T06:05:13.357Z,11.25
2019-03-12T06:06:13.384Z,11.25
2019-03-12T06:07:13.394Z,16.88
2019-03-12T06:08:13.410Z,16.88
2019-03-12T06:09:13.432Z,16.88
2019-03-12T06:10:13.450Z,16.88
2019-03-12T06:11:13.471Z,16.88
2019-03-12T06:12:13.489Z,16.88
2019-03-12T06:13:13.501Z,16.88
2019-03-12T06:14:13.521Z,16.88
2019-03-12T06:15:13.553Z,22.50
2019-03-12T06:16:13.567Z,28.13
2019-03-12T06:17:13.580Z,28.13
2019-03-12T06:18:13.596Z,28.13
2019-03-12T06:19:13.613Z,28.13
2019-03-12T06:20:13.629Z,33.75
2019-03-12T06:21:13.652Z,39.38
2019-03-12T06:22:13.679Z,33.75
2019-03-12T06:23:15.251Z,50.63
2019-03-12T06:24:13.706Z,45.00
2019-03-12T06:25:13.773Z,45.00
2019-03-12T06:26:13.745Z,45.00
2019-03-12T06:27:13.774Z,56.25
2019-03-12T06:28:13.786Z,67.50
2019-03-12T06:29:13.795Z,73.13
2019-03-12T06:30:13.828Z,45.00
2019-03-12T06:31:13.842Z,45.00
2019-03-12T06:32:13.910Z,50.63
2019-03-12T06:33:13.886Z,56.25
2019-03-12T06:34:13.904Z,56.25
2019-03-12T06:35:13.912Z,45.00
2019-03-12T06:36:13.932Z,50.63
2019-03-12T06:37:13.951Z,50.63
2019-03-12T06:38:13.972Z,50.63
2019-03-12T06:39:13.987Z,61.88
2019-03-12T06:40:14.007Z,50.63
2019-03-12T06:41:14.026Z,50.63
2019-03-12T06:42:14.044Z,56.25
2019-03-12T06:43:14.065Z,67.50
2019-03-12T06:44:14.079Z,61.88
2019-03-12T06:45:14.098Z,56.25
2019-03-12T06:46:14.127Z,61.88
2019-03-12T06:47:14.134Z,50.63
2019-03-12T06:48:14.175Z,56.25
2019-03-12T06:49:14.173Z,50.63
2019-03-12T06:50:14.205Z,67.50
2019-03-12T06:51:14.217Z,39.38
2019-03-12T06:52:14.232Z,56.25
2019-03-12T06:53:14.258Z,67.50
2019-03-12T06:54:14.273Z,101.25
2019-03-12T06:55:14.294Z,95.63
2019-03-12T06:56:14.321Z,129.38
2019-03-12T06:57:14.329Z,140.63
2019-03-12T06:58:14.351Z,112.50
2019-03-12T06:59:14.360Z,106.88
2019-03-12T07:00:14.394Z,129.38
2019-03-12T07:01:14.406Z,140.63
2019-03-12T07:02:14.417Z,135.00
2019-03-12T07:03:14.442Z,78.75
2019-03-12T07:04:14.456Z,50.63
2019-03-12T07:05:14.490Z,45.00
2019-03-12T07:06:14.497Z,50.63
2019-03-12T07:07:17.025Z,39.38
2019-03-12T07:08:14.534Z,39.38
2019-03-12T07:09:14.553Z,39.38
2019-03-12T07:10:14.573Z,39.38
2019-03-12T07:11:14.587Z,56.25
2019-03-12T07:12:14.611Z,67.50
2019-03-12T07:13:14.628Z,73.13
2019-03-12T07:14:14.646Z,50.63
2019-03-12T07:15:14.669Z,45.00
2019-03-12T07:16:14.679Z,33.75
2019-03-12T07:17:14.700Z,33.75
2019-03-12T07:18:14.730Z,39.38
2019-03-12T07:19:14.738Z,56.25
2019-03-12T07:20:14.763Z,73.13
2019-03-12T07:21:14.784Z,84.38
2019-03-12T07:22:14.799Z,101.25
2019-03-12T07:23:14.820Z,78.75
2019-03-12T07:24:14.830Z,67.50
2019-03-12T07:25:14.845Z,73.13
2019-03-12T07:26:14.872Z,45.00
2019-03-12T07:27:14.889Z,39.38
2019-03-12T07:28:14.911Z,45.00
2019-03-12T07:29:14.926Z,56.25
2019-03-12T07:30:14.989Z,67.50
2019-03-12T07:31:15.000Z,61.88
2019-03-12T07:32:14.982Z,67.50
2019-03-12T07:33:15.007Z,73.13
2019-03-12T07:34:18.208Z,67.50
2019-03-12T07:35:15.051Z,61.88
2019-03-12T07:36:15.059Z,61.88
2019-03-12T07:37:15.086Z,78.75
2019-03-12T07:38:15.117Z,67.50
2019-03-12T07:39:15.124Z,50.63
2019-03-12T07:40:15.151Z,73.13
2019-03-12T07:41:26.421Z,73.13
2019-03-12T07:42:15.185Z,90.00
2019-03-12T07:43:15.195Z,78.75
2019-03-12T07:44:15.226Z,129.38
2019-03-12T07:45:15.242Z,123.75
2019-03-12T07:46:15.249Z,129.38
2019-03-12T07:47:15.271Z,225.00
2019-03-12T07:48:15.297Z,196.88
2019-03-12T07:49:15.323Z,168.75
2019-03-12T07:50:15.339Z,112.50
2019-03-12T07:51:15.346Z,168.75
2019-03-12T07:52:15.364Z,151.88
2019-03-12T07:53:15.383Z,146.25
2019-03-12T07:54:15.403Z,196.88
2019-03-12T07:55:15.430Z,270.00
2019-03-12T07:56:15.438Z,196.88
2019-03-12T07:57:15.467Z,225.00
2019-03-12T07:58:15.479Z,146.25
2019-03-12T07:59:15.505Z,163.13
2019-03-12T08:00:15.521Z,157.50
2019-03-12T08:01:15.627Z,185.63
2019-03-12T08:02:15.550Z,163.13
2019-03-12T08:03:15.573Z,196.88
2019-03-12T08:04:15.601Z,196.88
2019-03-12T08:05:15.620Z,191.25
2019-03-12T08:06:15.680Z,163.13
2019-03-12T08:07:15.714Z,157.50
2019-03-12T08:08:15.676Z,101.25
2019-03-12T08:09:15.712Z,84.38
2019-03-12T08:10:15.709Z,95.63
2019-03-12T08:11:15.737Z,157.50
2019-03-12T08:12:15.746Z,112.50
2019-03-12T08:13:15.767Z,118.13
2019-03-12T08:14:15.801Z,135.00
2019-03-12T08:15:23.088Z,84.38
2019-03-12T08:16:15.828Z,67.50
2019-03-12T08:17:15.847Z,67.50
2019-03-12T08:18:15.870Z,78.75
2019-03-12T08:19:15.880Z,90.00
2019-03-12T08:20:15.897Z,95.63
2019-03-12T08:21:22.322Z,90.00
2019-03-12T08:22:15.933Z,90.00
2019-03-12T08:23:15.986Z,106.88
2019-03-12T08:24:15.976Z,106.88
2019-03-12T08:25:16.035Z,140.63
2019-03-12T08:26:16.012Z,112.50
2019-03-12T08:27:16.037Z,118.13
2019-03-12T08:28:16.060Z,84.38
2019-03-12T08:29:16.074Z,101.25
2019-03-12T08:30:16.099Z,90.00
2019-03-12T08:31:16.123Z,106.88
2019-03-12T08:32:16.138Z,180.00
2019-03-12T08:33:16.149Z,174.38
2019-03-12T08:34:16.275Z,157.50
2019-03-12T08:35:16.198Z,191.25
2019-03-12T08:36:16.209Z,191.25
2019-03-12T08:37:16.228Z,163.13
2019-03-12T08:38:16.238Z,112.50
2019-03-12T08:39:16.261Z,101.25
2019-03-12T08:40:16.292Z,151.88
2019-03-12T08:41:16.309Z,129.38
2019-03-12T08:42:16.318Z,135.00
2019-03-12T08:43:16.335Z,135.00
2019-03-12T08:44:16.363Z,112.50
2019-03-12T08:45:16.608Z,101.25
2019-03-12T08:46:18.395Z,163.13
2019-03-12T08:47:16.417Z,196.88
2019-03-12T08:48:16.430Z,185.63
2019-03-12T08:49:16.455Z,123.75
2019-03-12T08:50:16.475Z,146.25
2019-03-12T08:51:16.490Z,146.25
2019-03-12T08:52:16.515Z,118.13
2019-03-12T08:53:16.532Z,123.75
2019-03-12T08:54:16.548Z,135.00
2019-03-12T08:55:16.574Z,129.38
2019-03-12T08:56:16.588Z,129.38
2019-03-12T08:57:16.603Z,106.88
2019-03-12T08:58:16.630Z,135.00
2019-03-12T08:59:16.644Z,112.50
2019-03-12T09:00:16.669Z,112.50
2019-03-12T09:01:16.705Z,101.25
2019-03-12T09:02:16.705Z,135.00
2019-03-12T09:03:16.719Z,157.50
2019-03-12T09:04:16.780Z,185.63
2019-03-12T09:05:16.764Z,208.13
2019-03-12T09:06:16.784Z,168.75
2019-03-12T09:07:16.804Z,123.75
2019-03-12T09:08:16.824Z,230.63
2019-03-12T09:09:16.839Z,202.50
2019-03-12T09:10:16.862Z,146.25
2019-03-12T09:11:16.878Z,337.50
2019-03-12T09:12:16.977Z,472.50
2019-03-12T09:13:16.917Z,427.50
2019-03-12T09:14:16.945Z,337.50
2019-03-12T09:15:16.959Z,258.75
2019-03-12T09:16:16.975Z,270.00
2019-03-12T09:17:16.996Z,410.63
2019-03-12T09:18:17.016Z,286.88
2019-03-12T09:19:17.036Z,258.75
2019-03-12T09:20:17.055Z,320.63
2019-03-12T09:21:17.075Z,292.50
2019-03-12T09:22:17.132Z,331.88
2019-03-12T09:23:17.116Z,270.00
2019-03-12T09:24:17.135Z,382.50
2019-03-12T09:25:17.152Z,331.88
2019-03-12T09:26:17.181Z,354.38
2019-03-12T09:27:17.195Z,455.63
2019-03-12T09:28:17.210Z,241.88
2019-03-12T09:29:17.233Z,225.00
2019-03-12T09:30:17.248Z,343.13
2019-03-12T09:31:17.271Z,511.88
2019-03-12T09:32:17.290Z,405.00
2019-03-12T09:33:17.308Z,146.25
2019-03-12T09:34:17.327Z,168.75
2019-03-12T09:35:17.352Z,151.88
2019-03-12T09:36:17.371Z,270.00
2019-03-12T09:37:17.398Z,466.88
2019-03-12T09:38:17.410Z,495.00
2019-03-12T09:39:17.440Z,511.88
2019-03-12T09:40:17.450Z,720.00
2019-03-12T09:41:17.466Z,613.13
2019-03-12T09:42:17.500Z,2126.25
2019-03-12T09:43:17.515Z,2013.75
2019-03-12T09:44:17.524Z,1805.63
2019-03-12T09:45:17.555Z,1636.88
2019-03-12T09:46:17.572Z,2261.25
2019-03-12T09:47:17.596Z,2126.25
2019-03-12T09:48:17.609Z,2227.50
2019-03-12T09:49:17.630Z,2041.88
2019-03-12T09:50:17.656Z,1608.75
2019-03-12T09:51:17.676Z,1192.50
2019-03-12T09:52:17.696Z,1147.50
2019-03-12T09:53:17.715Z,1068.75
2019-03-12T09:54:17.740Z,832.50
2019-03-12T09:55:17.753Z,770.63
2019-03-12T09:56:17.783Z,911.25
2019-03-12T09:57:17.803Z,804.38
2019-03-12T09:58:17.823Z,742.50
2019-03-12T09:59:17.844Z,1063.13
2019-03-12T10:00:17.876Z,720.00
2019-03-12T10:01:17.892Z,630.00
2019-03-12T10:02:17.910Z,928.13
2019-03-12T10:03:17.935Z,888.75
2019-03-12T10:04:18.018Z,579.38
2019-03-12T10:05:17.983Z,1080.00
2019-03-12T10:06:17.993Z,607.50
2019-03-12T10:07:18.019Z,292.50
2019-03-12T10:08:18.038Z,315.00
2019-03-12T10:09:18.073Z,556.88
2019-03-12T10:10:18.082Z,900.00
2019-03-12T10:11:18.104Z,213.75
2019-03-12T10:12:18.122Z,320.63
2019-03-12T10:13:18.149Z,258.75
2019-03-12T10:14:18.175Z,551.25
2019-03-12T10:15:18.198Z,849.38
2019-03-12T10:16:18.209Z,922.50
2019-03-12T10:17:18.236Z,1698.75
2019-03-12T10:18:18.253Z,624.38
2019-03-12T10:19:18.277Z,511.88
2019-03-12T10:20:18.293Z,444.38
2019-03-12T10:21:18.330Z,624.38
2019-03-12T10:22:18.401Z,1333.13
2019-03-12T10:23:18.365Z,568.13
2019-03-12T10:24:18.387Z,613.13
2019-03-12T10:25:18.414Z,663.75
2019-03-12T10:26:18.455Z,708.75
2019-03-12T10:27:18.459Z,984.38
2019-03-12T10:28:18.501Z,877.50
2019-03-12T10:29:18.509Z,1316.25
2019-03-12T10:30:18.582Z,1389.38
2019-03-12T10:31:18.589Z,770.63
2019-03-12T10:32:18.700Z,455.63
2019-03-12T10:33:18.579Z,230.63
2019-03-12T10:34:28.805Z,376.88
2019-03-12T10:35:18.623Z,495.00
2019-03-12T10:36:18.780Z,343.13
2019-03-12T10:37:18.677Z,196.88
2019-03-12T10:38:18.689Z,286.88
2019-03-12T10:39:18.713Z,2070.00
2019-03-12T10:40:18.734Z,905.63
2019-03-12T10:41:18.749Z,2542.50
2019-03-12T10:42:18.776Z,1158.75
2019-03-12T10:43:18.792Z,371.25
2019-03-12T10:44:18.831Z,523.13
2019-03-12T10:45:18.837Z,2160.00
2019-03-12T10:46:18.914Z,2351.25
2019-03-12T10:47:18.909Z,1822.50
2019-03-12T10:48:18.938Z,528.75
2019-03-12T10:49:18.938Z,2289.38
2019-03-12T10:50:18.961Z,2075.63
2019-03-12T10:51:18.984Z,2058.75
2019-03-12T10:52:19.003Z,2120.63
2019-03-12T10:53:19.021Z,2300.63
2019-03-12T10:54:19.045Z,2328.75
2019-03-12T10:55:19.081Z,2272.50
2019-03-12T10:56:19.101Z,2233.13
2019-03-12T10:57:21.468Z,2115.00
2019-03-12T10:58:19.142Z,2221.88
2019-03-12T10:59:19.180Z,2373.75
2019-03-12T11:00:19.194Z,2311.88
2019-03-12T11:01:19.222Z,2368.13
2019-03-12T11:02:19.259Z,753.75
2019-03-12T11:03:19.286Z,523.13
2019-03-12T11:04:19.308Z,2424.38
2019-03-12T11:05:19.329Z,652.50
2019-03-12T11:06:19.364Z,2261.25
2019-03-12T11:07:19.397Z,2092.50
2019-03-12T11:08:19.420Z,2126.25
2019-03-12T11:09:19.437Z,697.50
2019-03-12T11:10:19.464Z,1507.50
2019-03-12T11:11:19.493Z,1980.00
2019-03-12T11:12:19.519Z,2047.50
2019-03-12T11:13:19.553Z,2070.00
2019-03-12T11:14:19.570Z,2025.00
2019-03-12T11:15:19.604Z,2081.25
2019-03-12T11:16:19.627Z,2013.75
2019-03-12T11:17:19.662Z,1980.00
2019-03-12T11:18:19.683Z,1923.75
2019-03-12T11:19:19.742Z,725.63
2019-03-12T11:20:19.745Z,1974.38
2019-03-12T11:21:19.768Z,1063.13
2019-03-12T11:22:19.802Z,2154.38
2019-03-12T11:23:19.834Z,2070.00
2019-03-12T11:24:19.860Z,1653.75
2019-03-12T11:25:27.311Z,1468.13
2019-03-12T11:26:19.941Z,1575.00
2019-03-12T11:27:19.953Z,1490.63
2019-03-12T11:28:19.979Z,1490.63
2019-03-12T11:29:20.008Z,562.50
2019-03-12T11:30:20.050Z,967.50
2019-03-12T11:31:20.078Z,1226.25
2019-03-12T11:32:20.093Z,1468.13
2019-03-12T11:33:20.158Z,1417.50
2019-03-12T11:34:20.156Z,911.25
2019-03-12T11:35:20.183Z,781.88
2019-03-12T11:36:20.223Z,1085.63
2019-03-12T11:37:20.258Z,1535.63
2019-03-12T11:38:20.305Z,517.50
2019-03-12T11:39:20.305Z,562.50
2019-03-12T11:40:20.323Z,4275.00
2019-03-12T11:41:20.362Z,2199.38
2019-03-12T11:42:20.430Z,4573.13
2019-03-12T11:43:20.470Z,6738.75
2019-03-12T11:44:20.437Z,6637.50
2019-03-12T11:45:31.099Z,984.38
2019-03-12T11:46:20.484Z,590.63
2019-03-12T11:47:20.518Z,2025.00
2019-03-12T11:48:20.549Z,3515.63
2019-03-12T11:49:20.570Z,950.63
2019-03-12T11:50:20.886Z,309.38
2019-03-12T11:51:20.625Z,196.88
2019-03-12T11:52:20.663Z,219.38
2019-03-12T11:53:20.679Z,455.63
2019-03-12T11:54:20.713Z,309.38
2019-03-12T11:55:20.753Z,275.63
2019-03-12T11:56:20.773Z,275.63
2019-03-12T11:57:20.817Z,337.50
2019-03-12T11:58:20.807Z,298.13
2019-03-12T11:59:20.850Z,624.38
2019-03-12T12:00:20.989Z,4145.63
2019-03-12T12:01:20.890Z,5073.75
2019-03-12T12:02:20.920Z,5686.88
2019-03-12T12:03:20.939Z,5979.38
2019-03-12T12:04:20.960Z,1006.88
2019-03-12T12:05:20.986Z,618.75
2019-03-12T12:06:21.016Z,483.75
2019-03-12T12:07:21.057Z,1400.63
2019-03-12T12:08:21.069Z,804.38
2019-03-12T12:09:21.105Z,506.25
2019-03-12T12:10:21.164Z,540.00
2019-03-12T12:11:21.150Z,461.25
2019-03-12T12:12:21.170Z,461.25
2019-03-12T12:13:21.207Z,2671.88
2019-03-12T12:14:21.222Z,4584.38
2019-03-12T12:15:21.254Z,3943.13
2019-03-12T12:16:21.278Z,4404.38
2019-03-12T12:17:21.301Z,3976.88
2019-03-12T12:18:21.323Z,4308.75
2019-03-12T12:19:21.357Z,4095.00
2019-03-12T12:20:29.663Z,1434.38
2019-03-12T12:21:21.411Z,500.63
2019-03-12T12:22:21.431Z,579.38
2019-03-12T12:23:21.466Z,517.50
2019-03-12T12:24:21.489Z,478.13
2019-03-12T12:25:21.519Z,410.63
2019-03-12T12:26:21.546Z,399.38
2019-03-12T12:27:21.566Z,337.50
2019-03-12T12:28:21.598Z,303.75
2019-03-12T12:29:21.621Z,264.38
2019-03-12T12:30:21.642Z,348.75
2019-03-12T12:31:21.667Z,315.00
2019-03-12T12:32:21.700Z,343.13
2019-03-12T12:33:21.720Z,371.25
2019-03-12T12:34:21.750Z,433.13
2019-03-12T12:35:21.771Z,320.63
2019-03-12T12:36:21.792Z,320.63
2019-03-12T12:37:21.819Z,360.00
2019-03-12T12:38:21.845Z,343.13
2019-03-12T12:39:21.863Z,315.00
2019-03-12T12:40:21.973Z,309.38
2019-03-12T12:41:21.919Z,326.25
2019-03-12T12:42:21.946Z,320.63
2019-03-12T12:43:21.978Z,315.00
2019-03-12T12:44:21.993Z,303.75
2019-03-12T12:45:22.015Z,309.38
2019-03-12T12:46:22.043Z,315.00
2019-03-12T12:47:22.062Z,292.50
2019-03-12T12:48:22.091Z,303.75
2019-03-12T12:49:22.122Z,309.38
2019-03-12T12:50:22.142Z,281.25
2019-03-12T12:51:22.161Z,286.88